Time;durP1;ratioP1;P1;durP2;ratioP2;P2;SDS_P1;SDS_P2;PMS_P1;PMS_P2;Temp;Humidity;BMP_temperature;BMP_pressure;BME280_temperature;BME280_humidity;BME280_pressure;Samples;Min_cycle;Max_cycle;Signal;HPM_P1;HPM_P2
2021/12/14 00:00:43;;;;;;;2.72;1.15;;;8.50;99.90;;;;;;4424657;32;20208;-71
2021/12/14 00:03:11;;;;;;;6.62;1.73;;;8.60;99.90;;;;;;4429419;32;20489;-70
2021/12/14 00:05:37;;;;;;;1.52;1.12;;;8.50;99.90;;;;;;4419608;32;20078;-71
2021/12/14 00:08:04;;;;;;;1.45;1.00;;;8.50;99.90;;;;;;4420216;32;20460;-72
2021/12/14 00:10:48;;;;;;;1.80;1.00;;;8.40;99.90;;;;;;4417599;32;20541;-71
2021/12/14 00:13:27;;;;;;;1.35;1.08;;;8.40;99.90;;;;;;4429656;32;20057;-72
2021/12/14 00:15:54;;;;;;;0.43;0.43;;;8.40;99.90;;;;;;4415257;32;20077;-71
2021/12/14 00:18:20;;;;;;;1.17;1.08;;;8.30;99.90;;;;;;4420197;32;20135;-71
2021/12/14 00:20:52;;;;;;;1.33;1.23;;;8.30;99.90;;;;;;4420295;32;20062;-70
2021/12/14 00:24:23;;;;;;;1.58;1.15;;;8.40;99.90;;;;;;4427799;32;20117;-70
2021/12/14 00:26:08;;;;;;;1.33;0.93;;;8.40;99.90;;;;;;4405612;32;20061;-71
2021/12/14 00:28:34;;;;;;;1.25;1.15;;;8.40;99.90;;;;;;4413309;32;20406;-71
2021/12/14 00:31:04;;;;;;;1.25;1.15;;;8.40;99.90;;;;;;4413578;32;20057;-71
2021/12/14 00:33:34;;;;;;;1.48;0.85;;;8.30;99.90;;;;;;4414818;32;20082;-70
2021/12/14 00:36:01;;;;;;;9.32;1.85;;;8.30;99.90;;;;;;4419531;32;20518;-71
2021/12/14 00:38:27;;;;;;;1.45;1.15;;;8.30;99.90;;;;;;4420668;32;20149;-71
2021/12/14 00:40:57;;;;;;;1.85;0.90;;;8.40;99.90;;;;;;4419036;32;20074;-71
2021/12/14 00:43:23;;;;;;;2.95;1.10;;;8.40;99.90;;;;;;4429104;32;20113;-70
2021/12/14 00:45:49;;;;;;;3.97;1.83;;;8.40;99.90;;;;;;4428148;32;20091;-70
2021/12/14 00:48:15;;;;;;;0.77;0.77;;;8.40;99.90;;;;;;4425389;32;20076;-71
2021/12/14 00:50:44;;;;;;;1.92;1.12;;;8.40;99.90;;;;;;4425828;32;20128;-70
2021/12/14 00:55:41;;;;;;;1.12;0.60;;;8.50;99.90;;;;;;4427919;32;20061;-70
2021/12/14 00:58:07;;;;;;;1.55;0.90;;;8.50;99.90;;;;;;4421293;32;20043;-71
2021/12/14 01:00:50;;;;;;;6.40;1.30;;;8.50;99.90;;;;;;4413270;32;20057;-71
2021/12/14 01:03:16;;;;;;;3.85;1.05;;;8.50;99.90;;;;;;4415244;32;20679;-70
2021/12/14 01:05:45;;;;;;;1.52;1.12;;;8.60;99.90;;;;;;4415702;32;20085;-70
2021/12/14 01:08:21;;;;;;;1.02;0.93;;;8.60;99.90;;;;;;4421325;32;20128;-72
2021/12/14 01:10:54;;;;;;;2.35;0.98;;;8.60;99.90;;;;;;4426042;32;20435;-70
2021/12/14 01:13:24;;;;;;;1.12;0.75;;;8.50;99.90;;;;;;4425132;32;20501;-70
2021/12/14 01:18:48;;;;;;;4.40;1.65;;;8.40;99.90;;;;;;4422561;32;20105;-71
2021/12/14 01:21:39;;;;;;;2.33;1.20;;;8.50;99.90;;;;;;4423474;32;20484;-71
2021/12/14 01:24:20;;;;;;;2.55;1.27;;;8.50;99.90;;;;;;4427978;32;20065;-71
2021/12/14 01:26:46;;;;;;;2.00;1.12;;;8.50;99.90;;;;;;4413459;32;20079;-71
2021/12/14 01:29:14;;;;;;;8.48;1.23;;;8.40;99.90;;;;;;4416061;32;20074;-71
2021/12/14 01:31:42;;;;;;;0.68;0.68;;;8.50;99.90;;;;;;4424434;32;20096;-70
2021/12/14 01:34:16;;;;;;;5.78;0.70;;;8.50;99.90;;;;;;4422404;32;20073;-71
2021/12/14 01:36:47;;;;;;;2.20;0.82;;;8.50;99.90;;;;;;4426505;32;20065;-70
2021/12/14 01:41:55;;;;;;;0.98;0.95;;;8.40;99.90;;;;;;4420121;32;20569;-70
2021/12/14 01:44:22;;;;;;;0.77;0.77;;;8.40;99.90;;;;;;4419697;32;20053;-71
2021/12/14 01:46:53;;;;;;;1.77;1.15;;;8.40;99.90;;;;;;4424037;32;20114;-70
2021/12/14 01:49:19;;;;;;;1.23;1.12;;;8.40;99.90;;;;;;4419623;32;20086;-70
2021/12/14 01:51:48;;;;;;;3.42;0.75;;;8.30;99.90;;;;;;4420854;32;20085;-71
2021/12/14 01:54:18;;;;;;;1.45;1.05;;;8.30;99.90;;;;;;4419643;32;20054;-70
2021/12/14 01:56:44;;;;;;;2.17;0.80;;;8.20;99.90;;;;;;4419619;32;20066;-70
2021/12/14 01:59:14;;;;;;;0.77;0.77;;;8.20;99.90;;;;;;4420087;32;20058;-70
2021/12/14 02:01:55;;;;;;;3.97;1.37;;;8.20;99.90;;;;;;4422873;32;20543;-71
2021/12/14 02:04:23;;;;;;;1.15;0.90;;;8.30;99.90;;;;;;4420123;32;20065;-71
2021/12/14 02:06:56;;;;;;;3.92;2.62;;;8.30;99.90;;;;;;4426997;32;20136;-71
2021/12/14 02:09:25;;;;;;;1.70;0.98;;;8.40;99.90;;;;;;4426529;32;20073;-71
2021/12/14 02:11:54;;;;;;;1.85;0.90;;;8.30;99.90;;;;;;4429155;32;20298;-71
2021/12/14 02:14:21;;;;;;;10.48;1.33;;;8.30;99.90;;;;;;4415851;32;20161;-71
2021/12/14 02:16:51;;;;;;;0.85;0.85;;;8.30;99.90;;;;;;4415383;32;20577;-70
2021/12/14 02:19:17;;;;;;;0.77;0.77;;;8.30;99.90;;;;;;4422239;32;20082;-70
2021/12/14 02:21:46;;;;;;;1.70;0.80;;;8.30;99.90;;;;;;4425415;32;20116;-71
2021/12/14 02:24:14;;;;;;;0.43;0.43;;;8.30;99.90;;;;;;4417020;32;20078;-71
2021/12/14 02:26:43;;;;;;;0.82;0.82;;;8.30;99.90;;;;;;4416420;32;20074;-70
2021/12/14 02:29:20;;;;;;;1.08;1.02;;;8.30;99.90;;;;;;4417581;32;20065;-69
2021/12/14 02:31:45;;;;;;;1.30;1.02;;;8.30;99.90;;;;;;4415765;32;20511;-70
2021/12/14 02:34:11;;;;;;;2.17;0.80;;;8.30;99.90;;;;;;4414202;32;20068;-71
2021/12/14 02:36:43;;;;;;;1.05;0.82;;;8.30;99.90;;;;;;4419193;32;20062;-71
2021/12/14 02:39:24;;;;;;;0.82;0.82;;;8.30;99.90;;;;;;4427303;32;20118;-70
2021/12/14 02:41:54;;;;;;;0.70;0.70;;;8.30;99.90;;;;;;4415696;32;20090;-71
2021/12/14 02:44:20;;;;;;;4.07;0.80;;;8.30;99.90;;;;;;4429141;32;20135;-71
2021/12/14 02:46:51;;;;;;;0.65;0.65;;;8.30;99.90;;;;;;4414738;32;20458;-71
2021/12/14 02:49:21;;;;;;;0.93;0.88;;;8.20;99.90;;;;;;4418247;32;20061;-71
2021/12/14 02:51:51;;;;;;;0.45;0.45;;;8.20;99.90;;;;;;4428764;32;20069;-71
2021/12/14 02:54:21;;;;;;;0.80;0.80;;;8.20;99.90;;;;;;4424744;32;20113;-72
2021/12/14 02:56:53;;;;;;;0.60;0.60;;;8.20;99.90;;;;;;4428494;32;20066;-71
2021/12/14 02:59:23;;;;;;;2.92;0.73;;;8.20;99.90;;;;;;4420465;32;20065;-71
2021/12/14 03:01:51;;;;;;;0.68;0.68;;;8.30;99.90;;;;;;4429079;32;20469;-69
2021/12/14 03:04:16;;;;;;;1.80;1.33;;;8.30;99.90;;;;;;4425496;32;20089;-71
2021/12/14 03:06:49;;;;;;;0.80;0.80;;;8.30;99.90;;;;;;4416261;32;20077;-70
2021/12/14 03:10:00;;;;;;;0.55;0.55;;;8.20;99.90;;;;;;4414803;32;20521;-70
2021/12/14 03:12:15;;;;;;;0.80;0.80;;;8.20;99.90;;;;;;4408966;32;20121;-70
2021/12/14 03:15:08;;;;;;;0.95;0.93;;;8.20;99.90;;;;;;4430787;32;20078;-71
2021/12/14 03:17:34;;;;;;;0.70;0.70;;;8.20;99.90;;;;;;4416593;32;20061;-71
2021/12/14 03:20:06;;;;;;;1.87;1.08;;;8.20;99.90;;;;;;4425219;32;20053;-70
2021/12/14 03:22:40;;;;;;;1.55;1.02;;;8.10;99.90;;;;;;4417838;32;20069;-71
2021/12/14 03:25:07;;;;;;;0.68;0.68;;;8.10;99.90;;;;;;4415321;32;20383;-71
2021/12/14 03:27:37;;;;;;;0.52;0.52;;;8.10;99.90;;;;;;4414369;32;20075;-71
2021/12/14 03:30:16;;;;;;;1.75;1.35;;;8.10;99.90;;;;;;4414009;32;20061;-70
2021/12/14 03:32:41;;;;;;;0.70;0.70;;;8.10;99.90;;;;;;4416895;32;20103;-71
2021/12/14 03:35:07;;;;;;;2.22;0.90;;;8.10;99.90;;;;;;4415325;32;20110;-70
2021/12/14 03:37:33;;;;;;;0.75;0.70;;;8.10;99.90;;;;;;4421620;32;20104;-71
2021/12/14 03:40:01;;;;;;;0.40;0.40;;;8.10;99.90;;;;;;4415769;32;20057;-70
2021/12/14 03:42:37;;;;;;;1.20;0.70;;;8.10;99.90;;;;;;4420538;32;20530;-71
2021/12/14 03:45:08;;;;;;;2.90;1.40;;;8.10;99.90;;;;;;4413857;32;20061;-70
2021/12/14 03:47:37;;;;;;;0.73;0.73;;;8.10;99.90;;;;;;4415254;32;20074;-70
2021/12/14 03:50:10;;;;;;;1.62;0.60;;;8.10;99.90;;;;;;4423527;32;20069;-71
2021/12/14 03:52:39;;;;;;;0.70;0.70;;;8.10;99.90;;;;;;4422205;32;20116;-71
2021/12/14 03:55:10;;;;;;;0.50;0.50;;;8.10;99.90;;;;;;4428991;32;20076;-71
2021/12/14 03:57:36;;;;;;;0.55;0.55;;;8.10;99.90;;;;;;4423990;32;20095;-71
2021/12/14 04:00:07;;;;;;;2.20;0.95;;;8.00;99.90;;;;;;4413664;32;20065;-71
2021/12/14 04:02:34;;;;;;;;;;;8.10;99.90;;;;;;4413913;32;20510;-71
2021/12/14 04:05:05;;;;;;;0.60;0.60;;;8.10;99.90;;;;;;4428393;32;20397;-70
2021/12/14 04:07:33;;;;;;;3.10;1.35;;;8.00;99.90;;;;;;4425723;32;20057;-71
2021/12/14 04:09:59;;;;;;;1.90;1.10;;;8.00;99.90;;;;;;4422750;32;20053;-71
2021/12/14 04:12:25;;;;;;;2.45;1.55;;;8.00;99.90;;;;;;4421480;32;20459;-71
2021/12/14 04:14:54;;;;;;;0.65;0.65;;;8.00;99.90;;;;;;4429694;32;20177;-70
2021/12/14 04:17:21;;;;;;;3.40;0.98;;;8.00;99.90;;;;;;4418906;32;20537;-70
2021/12/14 04:19:47;;;;;;;1.52;0.70;;;7.90;99.90;;;;;;4427374;32;20088;-71
2021/12/14 04:22:18;;;;;;;1.65;1.15;;;7.90;99.90;;;;;;4426029;32;20395;-70
2021/12/14 04:24:46;;;;;;;0.98;0.95;;;7.90;99.90;;;;;;4417395;32;20078;-70
2021/12/14 04:27:20;;;;;;;7.78;1.23;;;7.90;99.90;;;;;;4417566;32;20529;-71
2021/12/14 04:29:47;;;;;;;0.50;0.50;;;7.90;99.90;;;;;;4416723;32;20505;-70
2021/12/14 04:32:15;;;;;;;0.62;0.62;;;8.00;99.90;;;;;;4412845;32;89134;-71
2021/12/14 04:34:42;;;;;;;0.52;0.52;;;8.00;99.90;;;;;;4413866;32;20082;-70
2021/12/14 04:37:09;;;;;;;1.17;1.05;;;8.10;99.90;;;;;;4428622;32;20077;-70
2021/12/14 04:39:43;;;;;;;0.60;0.60;;;8.10;99.90;;;;;;4414620;32;20058;-71
2021/12/14 04:52:08;;;;;;;1.08;0.93;;;8.00;99.90;;;;;;4404838;32;20431;-71
2021/12/14 04:53:24;;;;;;;0.65;0.65;;;7.90;99.90;;;;;;4414644;32;20074;-71
2021/12/14 04:55:53;;;;;;;1.58;0.50;;;7.90;99.90;;;;;;4426320;32;20065;-71
2021/12/14 04:58:33;;;;;;;0.80;0.80;;;7.90;99.90;;;;;;4427788;32;20065;-70
2021/12/14 05:01:02;;;;;;;0.70;0.70;;;7.90;99.90;;;;;;4428231;32;20097;-70
2021/12/14 05:03:35;;;;;;;0.37;0.37;;;8.00;99.90;;;;;;4427433;32;20074;-71
2021/12/14 05:06:21;;;;;;;1.00;0.77;;;7.90;99.90;;;;;;4421436;32;20094;-71
2021/12/14 05:11:22;;;;;;;1.90;1.23;;;7.90;99.90;;;;;;4417346;32;20139;-71
2021/12/14 05:13:57;;;;;;;3.83;2.15;;;7.80;99.90;;;;;;4421038;32;20077;-71
2021/12/14 05:16:25;;;;;;;0.60;0.60;;;7.80;99.90;;;;;;4416195;32;20078;-71
2021/12/14 05:18:54;;;;;;;0.60;0.60;;;7.80;99.90;;;;;;4422892;32;20061;-71
2021/12/14 05:21:27;;;;;;;1.45;0.70;;;7.80;99.90;;;;;;4424463;32;20111;-71
2021/12/14 05:23:52;;;;;;;1.25;1.15;;;7.80;99.90;;;;;;4420882;32;20128;-70
2021/12/14 05:26:18;;;;;;;0.62;0.62;;;7.80;99.90;;;;;;4424792;32;20513;-71
2021/12/14 05:28:45;;;;;;;0.75;0.75;;;7.80;99.90;;;;;;4428519;32;20511;-71
2021/12/14 05:31:11;;;;;;;1.12;0.80;;;7.80;99.90;;;;;;4429997;32;20166;-72
2021/12/14 05:33:38;;;;;;;0.93;0.93;;;7.80;99.90;;;;;;4427308;32;20080;-71
2021/12/14 05:36:08;;;;;;;1.95;0.70;;;7.80;99.90;;;;;;4432139;32;20058;-71
2021/12/14 05:43:05;;;;;;;0.50;0.50;;;7.70;99.90;;;;;;4422432;32;20109;-71
2021/12/14 05:43:55;;;;;;;2.35;1.42;;;7.70;99.90;;;;;;4414003;32;20108;-70
2021/12/14 05:46:21;;;;;;;0.68;0.68;;;7.70;99.90;;;;;;4427377;32;20086;-71
2021/12/14 05:48:47;;;;;;;0.80;0.80;;;7.70;99.90;;;;;;4419118;32;20062;-71
2021/12/14 05:51:13;;;;;;;2.62;1.17;;;7.80;99.90;;;;;;4414680;32;20661;-70
2021/12/14 05:53:44;;;;;;;1.15;0.88;;;7.80;99.90;;;;;;4420428;32;20507;-71
2021/12/14 05:56:13;;;;;;;0.60;0.60;;;7.70;99.90;;;;;;4421266;32;20078;-71
2021/12/14 05:58:39;;;;;;;3.20;0.77;;;7.70;99.90;;;;;;4418359;32;20066;-71
2021/12/14 06:01:10;;;;;;;1.95;1.08;;;7.70;99.90;;;;;;4420027;32;20090;-71
2021/12/14 06:03:41;;;;;;;1.52;1.15;;;7.70;99.90;;;;;;4421090;32;20105;-71
2021/12/14 06:06:15;;;;;;;0.60;0.60;;;7.70;99.90;;;;;;4421591;32;20889;-71
2021/12/14 06:08:40;;;;;;;0.70;0.70;;;7.80;99.90;;;;;;4420477;32;20589;-71
2021/12/14 06:11:06;;;;;;;0.62;0.62;;;7.80;99.90;;;;;;4414411;32;20093;-71
2021/12/14 06:13:43;;;;;;;1.48;1.05;;;7.90;99.90;;;;;;4420089;32;20446;-71
2021/12/14 06:16:21;;;;;;;1.73;1.00;;;7.80;99.90;;;;;;4422437;32;20948;-70
2021/12/14 06:18:46;;;;;;;1.27;0.95;;;7.80;99.90;;;;;;4414234;32;20077;-71
2021/12/14 06:21:13;;;;;;;0.82;0.82;;;7.80;99.90;;;;;;4427322;32;20117;-71
2021/12/14 06:23:39;;;;;;;0.85;0.85;;;7.80;99.90;;;;;;4427455;32;20078;-71
2021/12/14 06:26:05;;;;;;;14.43;3.22;;;7.80;99.90;;;;;;4416755;32;20073;-70
2021/12/14 06:28:31;;;;;;;3.40;1.10;;;7.80;99.90;;;;;;4416189;32;20510;-71
2021/12/14 06:30:59;;;;;;;0.75;0.75;;;7.90;99.90;;;;;;4408055;32;20085;-71
2021/12/14 06:33:30;;;;;;;0.60;0.60;;;7.90;99.90;;;;;;4409281;32;20240;-71
2021/12/14 06:35:59;;;;;;;0.57;0.55;;;7.90;99.90;;;;;;4414499;32;20160;-73
2021/12/14 06:38:32;;;;;;;0.70;0.70;;;7.70;99.90;;;;;;4415981;32;20467;-72
2021/12/14 06:41:15;;;;;;;0.88;0.82;;;7.70;99.90;;;;;;4424096;32;20081;-71
2021/12/14 06:43:55;;;;;;;1.25;1.00;;;7.80;99.90;;;;;;4416587;32;20108;-71
2021/12/14 06:46:32;;;;;;;1.30;0.70;;;7.80;99.90;;;;;;4418894;32;20090;-71
2021/12/14 06:49:06;;;;;;;3.20;1.67;;;7.70;99.90;;;;;;4417362;32;20392;-72
2021/12/14 06:51:39;;;;;;;20.17;1.00;;;7.70;99.90;;;;;;4415524;32;20085;-72
2021/12/14 06:54:09;;;;;;;2.53;1.30;;;7.80;99.90;;;;;;4416660;32;20145;-72
2021/12/14 06:56:36;;;;;;;0.68;0.68;;;7.80;99.90;;;;;;4414115;32;20096;-71
2021/12/14 06:59:06;;;;;;;3.85;0.40;;;7.80;99.90;;;;;;4407580;32;20078;-70
2021/12/14 07:01:36;;;;;;;1.05;0.95;;;7.80;99.90;;;;;;4403989;32;20073;-71
2021/12/14 07:04:07;;;;;;;1.37;0.90;;;7.80;99.90;;;;;;4405783;32;20106;-72
2021/12/14 07:06:38;;;;;;;2.08;0.70;;;7.60;99.90;;;;;;4406496;32;20224;-71
2021/12/14 07:09:08;;;;;;;0.60;0.60;;;7.70;99.90;;;;;;4410649;32;20094;-71
2021/12/14 07:11:36;;;;;;;1.55;0.90;;;7.70;99.90;;;;;;4410055;32;20082;-71
2021/12/14 07:14:14;;;;;;;0.88;0.62;;;7.80;99.90;;;;;;4409819;32;20193;-71
2021/12/14 07:16:45;;;;;;;1.83;0.65;;;7.80;99.90;;;;;;4411750;32;20159;-71
2021/12/14 07:19:11;;;;;;;0.98;0.93;;;7.80;99.90;;;;;;4411031;32;20118;-70
2021/12/14 07:21:42;;;;;;;0.47;0.47;;;7.80;99.90;;;;;;4405694;32;20479;-71
2021/12/14 07:24:25;;;;;;;3.42;1.10;;;7.70;99.90;;;;;;4408698;32;20065;-71
2021/12/14 07:27:14;;;;;;;0.93;0.85;;;7.70;99.90;;;;;;4414789;32;20093;-71
2021/12/14 07:29:39;;;;;;;0.60;0.55;;;7.70;99.90;;;;;;4402021;32;20080;-70
2021/12/14 07:32:05;;;;;;;1.15;1.00;;;7.70;99.90;;;;;;4410617;32;20082;-71
2021/12/14 07:34:31;;;;;;;1.98;1.20;;;7.70;99.90;;;;;;4415111;32;20082;-70
2021/12/14 07:36:57;;;;;;;2.80;1.52;;;7.80;99.90;;;;;;4412710;32;20081;-70
2021/12/14 07:39:22;;;;;;;3.65;1.27;;;7.80;99.90;;;;;;4411063;32;20121;-71
2021/12/14 07:41:52;;;;;;;0.57;0.57;;;7.90;99.90;;;;;;4409272;32;21453;-70
2021/12/14 07:44:21;;;;;;;3.33;1.05;;;7.80;99.90;;;;;;4412341;32;20116;-70
2021/12/14 07:46:52;;;;;;;0.75;0.75;;;7.90;99.90;;;;;;4403007;32;20525;-70
2021/12/14 07:49:24;;;;;;;0.73;0.73;;;7.80;99.90;;;;;;4407344;32;20168;-69
2021/12/14 07:51:54;;;;;;;0.93;0.88;;;7.80;99.90;;;;;;4409417;32;20570;-69
2021/12/14 07:54:25;;;;;;;1.33;1.02;;;7.80;99.90;;;;;;4407083;32;20783;-69
2021/12/14 07:56:57;;;;;;;0.60;0.60;;;7.80;99.90;;;;;;4410636;32;20113;-69
2021/12/14 07:59:27;;;;;;;0.45;0.45;;;7.80;99.90;;;;;;4410594;32;20165;-70
2021/12/14 08:02:16;;;;;;;0.50;0.50;;;7.90;99.90;;;;;;4411170;32;20451;-69
2021/12/14 08:04:46;;;;;;;6.97;0.88;;;7.80;99.90;;;;;;4399531;32;20094;-69
2021/12/14 08:07:23;;;;;;;0.50;0.50;;;7.80;99.90;;;;;;4404406;32;20098;-70
2021/12/14 08:09:50;;;;;;;0.40;0.40;;;7.90;99.90;;;;;;4407840;32;20074;-70
2021/12/14 08:12:53;;;;;;;0.62;0.62;;;7.90;99.90;;;;;;4410350;32;20140;-69
2021/12/14 08:15:41;;;;;;;0.75;0.75;;;7.90;99.90;;;;;;4397875;32;20078;-69
2021/12/14 08:18:11;;;;;;;3.35;1.45;;;7.90;99.90;;;;;;4399531;32;20136;-70
2021/12/14 08:20:43;;;;;;;2.30;1.33;;;7.90;99.90;;;;;;4412188;32;20169;-70
2021/12/14 08:23:16;;;;;;;0.85;0.65;;;7.80;99.90;;;;;;4409643;32;20200;-70
2021/12/14 08:25:41;;;;;;;0.60;0.60;;;7.80;99.90;;;;;;4406778;32;20420;-69
2021/12/14 08:28:08;;;;;;;1.30;0.90;;;7.90;99.90;;;;;;4403581;32;20105;-69
2021/12/14 08:30:36;;;;;;;1.02;1.00;;;7.90;99.90;;;;;;4403460;32;20101;-69
2021/12/14 08:33:03;;;;;;;1.62;0.90;;;7.90;99.90;;;;;;4406040;32;20104;-68
2021/12/14 08:35:30;;;;;;;0.80;0.80;;;7.90;99.90;;;;;;4408476;32;20202;-69
2021/12/14 08:37:59;;;;;;;0.93;0.70;;;8.00;99.90;;;;;;4406812;32;20080;-69
2021/12/14 08:40:31;;;;;;;2.03;1.12;;;7.90;99.90;;;;;;4414095;32;20093;-69
2021/12/14 08:43:03;;;;;;;0.73;0.73;;;7.90;99.90;;;;;;4414774;32;20069;-69
2021/12/14 08:45:33;;;;;;;1.75;1.00;;;7.90;99.90;;;;;;4415297;32;20718;-69
2021/12/14 08:48:03;;;;;;;;;;;7.90;99.90;;;;;;4404210;32;20201;-69
2021/12/14 08:50:31;;;;;;;1.17;0.88;;;8.00;99.90;;;;;;4404440;32;20192;-69
2021/12/14 08:52:58;;;;;;;1.25;1.15;;;8.00;99.90;;;;;;4401294;32;20604;-69
2021/12/14 08:55:28;;;;;;;0.45;0.45;;;7.90;99.90;;;;;;4401024;32;20089;-69
2021/12/14 08:57:54;;;;;;;0.57;0.57;;;7.90;99.90;;;;;;4389380;32;20187;-69
2021/12/14 09:00:26;;;;;;;0.43;0.43;;;7.90;99.90;;;;;;4399343;32;20117;-69
2021/12/14 09:02:58;;;;;;;0.60;0.60;;;7.90;99.90;;;;;;4399873;32;20597;-69
2021/12/14 09:05:32;;;;;;;0.65;0.65;;;7.70;99.90;;;;;;4404586;32;20133;-69
2021/12/14 09:07:59;;;;;;;0.50;0.50;;;7.70;99.90;;;;;;4396642;32;20514;-69
2021/12/14 09:10:28;;;;;;;13.32;1.70;;;7.80;99.90;;;;;;4391568;32;20584;-69
2021/12/14 09:13:01;;;;;;;1.67;0.80;;;7.80;99.90;;;;;;4398031;32;20089;-69
2021/12/14 09:15:36;;;;;;;0.85;0.73;;;7.80;99.90;;;;;;4392755;32;20151;-70
2021/12/14 09:18:02;;;;;;;0.50;0.50;;;7.70;99.90;;;;;;4396091;32;20070;-68
2021/12/14 09:20:41;;;;;;;0.75;0.75;;;7.80;99.90;;;;;;4401591;32;20159;-69
2021/12/14 09:23:13;;;;;;;0.52;0.52;;;7.80;99.90;;;;;;4400770;32;20844;-70
2021/12/14 09:25:39;;;;;;;1.10;0.75;;;7.90;99.90;;;;;;4402478;32;20053;-68
2021/12/14 09:28:06;;;;;;;0.55;0.55;;;7.90;99.90;;;;;;4398032;32;20153;-68
2021/12/14 09:30:36;;;;;;;0.70;0.70;;;7.90;99.90;;;;;;4401611;32;20486;-69
2021/12/14 09:33:02;;;;;;;0.73;0.62;;;8.00;99.90;;;;;;4402979;32;20089;-69
2021/12/14 09:35:29;;;;;;;0.50;0.50;;;8.00;99.90;;;;;;4396765;32;20082;-69
2021/12/14 09:37:57;;;;;;;0.73;0.73;;;8.00;99.90;;;;;;4395181;32;20081;-70
2021/12/14 09:40:29;;;;;;;1.23;1.10;;;8.00;99.90;;;;;;4402472;32;20093;-69
2021/12/14 09:42:55;;;;;;;1.40;0.47;;;8.10;99.90;;;;;;4403028;32;20171;-69
2021/12/14 09:45:29;;;;;;;0.57;0.57;;;8.00;99.90;;;;;;4402339;32;20092;-69
2021/12/14 09:47:55;;;;;;;1.20;1.10;;;8.10;99.90;;;;;;4400029;32;20101;-69
2021/12/14 09:50:27;;;;;;;3.35;0.80;;;8.10;99.90;;;;;;4404693;32;20706;-69
2021/12/14 09:52:55;;;;;;;2.72;1.45;;;8.10;99.90;;;;;;4398121;32;20713;-69
2021/12/14 09:55:25;;;;;;;1.20;0.90;;;8.00;99.90;;;;;;4401986;32;20529;-68
2021/12/14 09:57:55;;;;;;;1.25;0.80;;;8.00;99.90;;;;;;4398488;32;20182;-68
2021/12/14 10:00:28;;;;;;;6.18;0.77;;;8.10;99.90;;;;;;4396641;32;20102;-68
2021/12/14 10:02:56;;;;;;;0.50;0.50;;;8.10;99.90;;;;;;4395220;32;20429;-69
2021/12/14 10:05:29;;;;;;;5.47;0.93;;;8.10;99.90;;;;;;4395954;32;20160;-69
2021/12/14 10:07:57;;;;;;;0.68;0.68;;;8.10;99.90;;;;;;4405039;32;20070;-71
2021/12/14 10:10:23;;;;;;;1.02;1.02;;;8.10;99.90;;;;;;4403761;32;20310;-69
2021/12/14 10:12:54;;;;;;;0.65;0.65;;;8.00;99.90;;;;;;4404383;32;20755;-70
2021/12/14 10:15:30;;;;;;;2.92;1.08;;;8.00;99.90;;;;;;4404985;32;20567;-69
2021/12/14 10:18:01;;;;;;;0.60;0.60;;;8.00;99.90;;;;;;4401603;32;20675;-69
2021/12/14 10:20:29;;;;;;;;;;;8.20;99.90;;;;;;4406635;32;20672;-68
2021/12/14 10:22:56;;;;;;;0.50;0.50;;;8.20;99.90;;;;;;4407172;32;19988;-70
2021/12/14 10:25:26;;;;;;;2.42;0.60;;;8.20;99.90;;;;;;4403955;32;20078;-67
2021/12/14 10:27:53;;;;;;;0.50;0.50;;;8.30;99.90;;;;;;4410444;32;20061;-69
2021/12/14 10:30:26;;;;;;;0.57;0.57;;;8.30;99.90;;;;;;4407095;32;20081;-69
2021/12/14 10:32:52;;;;;;;1.02;0.90;;;8.30;99.90;;;;;;4394732;32;21879;-69
2021/12/14 10:35:22;;;;;;;0.70;0.70;;;8.10;99.90;;;;;;4393396;32;20085;-70
2021/12/14 10:37:57;;;;;;;0.80;0.80;;;8.10;99.90;;;;;;4398356;32;20448;-70
2021/12/14 10:43:18;;;;;;;2.30;1.23;;;8.10;99.90;;;;;;4383553;32;20884;-69
2021/12/14 10:45:55;;;;;;;0.65;0.65;;;8.10;99.90;;;;;;4400980;32;20142;-69
2021/12/14 10:48:26;;;;;;;4.03;1.17;;;8.10;99.90;;;;;;4397149;32;20410;-68
2021/12/14 10:50:56;;;;;;;0.90;0.90;;;8.20;99.90;;;;;;4398435;32;20090;-69
2021/12/14 10:53:24;;;;;;;3.50;1.30;;;8.10;99.90;;;;;;4401369;32;20194;-68
2021/12/14 10:55:57;;;;;;;1.52;1.02;;;8.20;99.90;;;;;;4406052;32;20121;-69
2021/12/14 10:58:26;;;;;;;1.30;0.80;;;8.30;99.90;;;;;;4401749;32;20085;-69
2021/12/14 11:00:59;;;;;;;0.60;0.60;;;8.30;99.90;;;;;;4405281;32;20422;-69
2021/12/14 11:03:29;;;;;;;1.10;0.98;;;8.30;99.90;;;;;;4399443;32;21073;-70
2021/12/14 11:05:59;;;;;;;0.77;0.68;;;8.30;99.90;;;;;;4406448;32;20069;-69
2021/12/14 11:08:48;;;;;;;1.10;1.00;;;8.30;99.90;;;;;;4400230;32;21422;-69
2021/12/14 11:11:19;;;;;;;2.17;0.82;;;8.30;99.90;;;;;;4389869;32;20081;-69
2021/12/14 11:13:52;;;;;;;12.73;1.25;;;8.40;99.90;;;;;;4405585;32;20127;-69
2021/12/14 11:16:33;;;;;;;1.40;1.17;;;8.40;99.90;;;;;;4402244;32;20084;-67
2021/12/14 11:19:04;;;;;;;6.97;1.20;;;8.40;99.90;;;;;;4399265;32;20779;-68
2021/12/14 11:21:31;;;;;;;0.60;0.60;;;8.50;99.90;;;;;;4407357;32;20537;-68
2021/12/14 11:23:56;;;;;;;5.18;2.15;;;8.50;99.90;;;;;;4411557;32;20121;-68
2021/12/14 11:26:29;;;;;;;1.48;1.20;;;8.60;99.90;;;;;;4409278;32;20632;-68
2021/12/14 11:28:58;;;;;;;5.10;1.58;;;8.60;99.90;;;;;;4407677;32;20111;-68
2021/12/14 11:31:30;;;;;;;0.68;0.68;;;8.60;99.90;;;;;;4406271;32;20368;-65
2021/12/14 11:34:12;;;;;;;0.65;0.65;;;8.60;99.90;;;;;;4394648;32;20144;-67
2021/12/14 11:36:43;;;;;;;0.70;0.70;;;8.60;99.90;;;;;;4408081;32;20094;-68
2021/12/14 11:39:24;;;;;;;1.15;0.95;;;8.60;99.90;;;;;;4408280;32;20116;-68
2021/12/14 11:42:08;;;;;;;0.62;0.62;;;8.60;99.90;;;;;;4408384;32;20136;-69
2021/12/14 11:44:40;;;;;;;0.77;0.77;;;8.60;99.90;;;;;;4407175;32;20092;-69
2021/12/14 11:47:41;;;;;;;1.27;0.82;;;8.60;99.90;;;;;;4405342;32;20078;-68
2021/12/14 11:50:33;;;;;;;1.70;1.00;;;8.70;99.90;;;;;;4407553;32;20112;-68
2021/12/14 11:53:13;;;;;;;0.60;0.60;;;8.70;99.90;;;;;;4407119;32;20732;-69
2021/12/14 11:55:42;;;;;;;1.92;0.85;;;8.80;99.90;;;;;;4401978;32;20078;-69
2021/12/14 11:58:33;;;;;;;0.40;0.40;;;8.80;99.90;;;;;;4406679;32;20589;-68
2021/12/14 12:01:18;;;;;;;0.88;0.80;;;8.90;99.90;;;;;;4399125;32;20098;-68
2021/12/14 12:03:49;;;;;;;0.68;0.68;;;8.90;99.90;;;;;;4406014;32;20094;-68
2021/12/14 12:09:28;;;;;;;1.08;0.65;;;8.90;99.90;;;;;;4395559;32;20082;-68
2021/12/14 12:09:44;;;;;;;0.70;0.70;;;8.90;99.90;;;;;;4388964;32;20147;-68
2021/12/14 12:12:23;;;;;;;0.88;0.82;;;8.90;99.90;;;;;;4406471;32;20086;-68
2021/12/14 12:14:56;;;;;;;1.10;0.60;;;8.90;99.90;;;;;;4409555;32;20099;-68
2021/12/14 12:17:28;;;;;;;0.75;0.75;;;8.90;99.90;;;;;;4407950;32;22121;-67
2021/12/14 12:20:06;;;;;;;21.92;0.65;;;8.90;99.90;;;;;;4410472;32;20089;-68
2021/12/14 12:22:36;;;;;;;1.37;1.10;;;8.90;99.90;;;;;;4408899;32;20312;-68
2021/12/14 12:25:08;;;;;;;0.80;0.80;;;9.00;99.90;;;;;;4411057;32;20690;-68
2021/12/14 12:27:40;;;;;;;0.60;0.60;;;9.00;99.90;;;;;;4408860;32;20081;-68
2021/12/14 12:30:12;;;;;;;0.95;0.60;;;8.90;99.90;;;;;;4409664;32;20149;-67
2021/12/14 12:32:38;;;;;;;0.85;0.70;;;9.00;99.90;;;;;;4414435;32;20088;-68
2021/12/14 12:35:28;;;;;;;3.45;1.65;;;9.00;99.90;;;;;;4410864;32;20759;-68
2021/12/14 12:37:55;;;;;;;1.85;0.60;;;9.10;99.90;;;;;;4404772;32;20109;-69
2021/12/14 12:40:35;;;;;;;0.45;0.45;;;9.10;99.90;;;;;;4409588;32;20132;-68
2021/12/14 12:43:20;;;;;;;1.00;0.65;;;9.10;99.90;;;;;;4408615;32;20423;-69
2021/12/14 12:45:58;;;;;;;0.60;0.60;;;9.10;99.90;;;;;;4406002;32;20077;-68
2021/12/14 12:48:43;;;;;;;10.57;1.80;;;9.20;99.90;;;;;;4411841;32;20078;-69
2021/12/14 12:51:09;;;;;;;0.88;0.88;;;9.20;99.90;;;;;;4409706;32;20094;-68
2021/12/14 12:53:35;;;;;;;0.85;0.60;;;9.20;99.90;;;;;;4412696;32;20089;-69
2021/12/14 12:56:13;;;;;;;0.65;0.65;;;9.20;99.90;;;;;;4410579;32;20074;-69
2021/12/14 12:58:44;;;;;;;0.40;0.40;;;9.10;99.90;;;;;;4408164;32;20132;-68
2021/12/14 13:01:11;;;;;;;0.45;0.45;;;9.20;99.90;;;;;;4413322;32;20090;-68
2021/12/14 13:03:42;;;;;;;0.43;0.43;;;9.20;99.90;;;;;;4411138;32;20632;-68
2021/12/14 13:06:10;;;;;;;;;;;9.20;99.90;;;;;;4411848;32;20145;-68
2021/12/14 13:08:39;;;;;;;2.00;1.27;;;9.20;99.90;;;;;;4412208;32;20414;-69
2021/12/14 13:11:10;;;;;;;3.10;0.80;;;9.20;99.90;;;;;;4395704;32;21287;-69
2021/12/14 13:13:57;;;;;;;0.80;0.80;;;9.20;99.90;;;;;;4407729;32;20077;-69
2021/12/14 13:16:25;;;;;;;0.70;0.70;;;9.20;99.90;;;;;;4399830;32;20478;-69
2021/12/14 13:19:11;;;;;;;0.95;0.73;;;9.10;99.90;;;;;;4410749;32;20101;-69
2021/12/14 13:21:47;;;;;;;0.65;0.65;;;9.10;99.90;;;;;;4410932;32;20101;-69
2021/12/14 13:24:24;;;;;;;0.90;0.80;;;9.20;99.90;;;;;;4411762;32;20124;-68
2021/12/14 13:26:55;;;;;;;0.52;0.52;;;9.20;99.90;;;;;;4412308;32;20232;-68
2021/12/14 13:29:23;;;;;;;0.88;0.57;;;9.20;99.90;;;;;;4418400;32;20093;-68
2021/12/14 13:32:00;;;;;;;0.40;0.40;;;9.20;99.90;;;;;;4413350;32;20517;-69
2021/12/14 13:34:34;;;;;;;2.60;0.93;;;9.00;99.90;;;;;;4415886;32;20097;-69
2021/12/14 13:37:01;;;;;;;0.62;0.62;;;9.00;99.90;;;;;;4413023;32;20573;-69
2021/12/14 13:39:28;;;;;;;0.55;0.52;;;8.90;99.90;;;;;;4418012;32;20439;-69
2021/12/14 13:42:14;;;;;;;0.60;0.60;;;8.90;99.90;;;;;;4414882;32;20085;-69
2021/12/14 13:44:44;;;;;;;1.85;0.93;;;8.80;99.90;;;;;;4413684;32;20201;-68